createdAt,value
2022-09-04T00:01:54.196Z,14.80
2022-09-04T00:04:26.635Z,14.82
2022-09-04T00:07:21.804Z,14.87
2022-09-04T00:10:12.441Z,14.88
2022-09-04T00:12:49.205Z,14.87
2022-09-04T00:15:26.716Z,14.87
2022-09-04T00:18:00.699Z,14.83
2022-09-04T00:20:41.301Z,14.85
2022-09-04T00:23:49.817Z,14.83
2022-09-04T00:26:42.903Z,14.76
2022-09-04T00:29:24.900Z,14.70
2022-09-04T00:32:02.144Z,14.78
2022-09-04T00:34:59.979Z,14.75
2022-09-04T00:37:31.786Z,14.68
2022-09-04T00:40:06.442Z,14.74
2022-09-04T00:42:54.911Z,14.71
2022-09-04T00:45:46.578Z,14.84
2022-09-04T00:48:30.731Z,14.80
2022-09-04T00:51:21.720Z,14.74
2022-09-04T00:54:03.328Z,14.77
2022-09-04T00:56:45.873Z,14.76
2022-09-04T00:59:32.771Z,14.88
2022-09-04T01:02:08.768Z,14.80
2022-09-04T01:04:40.517Z,14.82
2022-09-04T01:07:33.740Z,14.84
2022-09-04T01:10:26.572Z,14.73
2022-09-04T01:13:25.731Z,14.64
2022-09-04T01:16:00.412Z,14.66
2022-09-04T01:18:35.126Z,14.74
2022-09-04T01:21:14.912Z,14.69
2022-09-04T01:23:56.592Z,14.72
2022-09-04T01:26:33.085Z,14.70
2022-09-04T01:29:18.308Z,14.67
2022-09-04T01:31:47.715Z,14.65
2022-09-04T01:34:35.322Z,14.62
2022-09-04T01:37:29.640Z,14.57
2022-09-04T01:40:21.739Z,14.65
2022-09-04T01:42:52.887Z,14.75
2022-09-04T01:45:30.198Z,14.79
2022-09-04T01:48:02.909Z,14.67
2022-09-04T01:50:32.896Z,14.71
2022-09-04T01:53:15.204Z,14.74
2022-09-04T01:55:47.694Z,14.69
2022-09-04T01:58:27.636Z,14.62
2022-09-04T02:01:08.694Z,14.62
2022-09-04T02:03:46.142Z,14.48
2022-09-04T02:06:31.083Z,14.54
2022-09-04T02:09:11.103Z,14.65
2022-09-04T02:11:40.290Z,14.61
2022-09-04T02:14:15.094Z,14.55
2022-09-04T02:16:57.187Z,14.62
2022-09-04T02:19:35.754Z,14.60
2022-09-04T02:22:44.549Z,14.73
2022-09-04T02:25:28.543Z,14.70
2022-09-04T02:28:23.336Z,14.51
2022-09-04T02:30:54.586Z,14.41
2022-09-04T02:33:35.480Z,14.44
2022-09-04T02:36:12.267Z,14.35
2022-09-04T02:38:47.942Z,14.37
2022-09-04T02:41:37.221Z,14.48
2022-09-04T02:44:25.603Z,14.57
2022-09-04T02:47:13.959Z,14.61
2022-09-04T02:50:07.734Z,14.62
2022-09-04T02:52:40.048Z,14.65
2022-09-04T02:55:25.273Z,14.73
2022-09-04T02:58:08.115Z,14.83
2022-09-04T03:00:46.423Z,14.92
2022-09-04T03:03:22.156Z,14.99
2022-09-04T03:06:18.372Z,15.03
2022-09-04T03:08:53.419Z,15.07
2022-09-04T03:11:31.980Z,14.97
2022-09-04T03:14:15.909Z,14.95
2022-09-04T03:16:42.179Z,14.89
2022-09-04T03:19:21.016Z,14.95
2022-09-04T03:21:52.348Z,15.04
2022-09-04T03:24:57.948Z,14.98
2022-09-04T03:27:24.989Z,14.94
2022-09-04T03:30:08.399Z,14.99
2022-09-04T03:32:44.383Z,15.00
2022-09-04T03:35:39.895Z,14.85
2022-09-04T03:38:14.476Z,14.61
2022-09-04T03:41:11.111Z,14.67
2022-09-04T03:43:50.917Z,14.55
2022-09-04T03:46:17.346Z,14.29
2022-09-04T03:49:03.963Z,14.51
2022-09-04T03:51:53.563Z,14.30
2022-09-04T03:54:45.724Z,14.36
2022-09-04T03:57:24.739Z,14.51
2022-09-04T04:00:08.536Z,14.43
2022-09-04T04:02:51.356Z,14.22
2022-09-04T04:05:26.015Z,14.33
2022-09-04T04:07:59.951Z,14.24
2022-09-04T04:10:46.317Z,14.25
2022-09-04T04:13:23.117Z,14.25
2022-09-04T04:16:03.467Z,14.17
2022-09-04T04:18:48.831Z,14.22
2022-09-04T04:21:39.685Z,14.08
2022-09-04T04:24:29.912Z,14.00
2022-09-04T04:27:25.619Z,13.74
2022-09-04T04:29:55.090Z,13.79
2022-09-04T04:32:45.814Z,13.90
2022-09-04T04:35:28.549Z,13.83
2022-09-04T04:37:55.689Z,13.60
2022-09-04T04:40:53.157Z,13.73
2022-09-04T04:43:44.452Z,13.88
2022-09-04T04:46:34.745Z,13.77
2022-09-04T04:49:34.052Z,13.69
2022-09-04T04:52:18.919Z,13.65
2022-09-04T04:55:07.542Z,13.68
2022-09-04T04:57:57.929Z,13.70
2022-09-04T05:00:32.162Z,13.42
2022-09-04T05:03:08.122Z,13.52
2022-09-04T05:05:49.934Z,13.57
2022-09-04T05:08:25.913Z,13.74
2022-09-04T05:11:12.611Z,13.69
2022-09-04T05:13:48.725Z,13.68
2022-09-04T05:16:51.176Z,13.74
2022-09-04T05:19:57.658Z,13.73
2022-09-04T05:22:48.814Z,13.75
2022-09-04T05:25:40.102Z,13.81
2022-09-04T05:28:31.459Z,14.10
2022-09-04T05:31:18.251Z,14.07
2022-09-04T05:34:08.128Z,14.32
2022-09-04T05:37:09.703Z,14.56
2022-09-04T05:40:00.543Z,15.04
2022-09-04T05:43:01.102Z,15.59
2022-09-04T05:45:53.405Z,16.43
2022-09-04T05:48:27.475Z,16.68
2022-09-04T05:51:22.831Z,16.95
2022-09-04T05:54:22.127Z,16.78
2022-09-04T05:57:17.890Z,17.12
2022-09-04T06:00:04.665Z,17.14
2022-09-04T06:03:02.062Z,17.27
2022-09-04T06:06:07.567Z,17.26
2022-09-04T06:08:53.868Z,17.65
2022-09-04T06:11:51.408Z,17.72
2022-09-04T06:14:35.693Z,17.89
2022-09-04T06:17:33.032Z,17.86
2022-09-04T06:20:14.670Z,18.09
2022-09-04T06:22:53.815Z,17.64
2022-09-04T06:25:53.746Z,17.80
2022-09-04T06:28:43.730Z,18.23
2022-09-04T06:31:18.738Z,17.98
2022-09-04T06:34:00.420Z,17.85
2022-09-04T06:36:45.346Z,17.90
2022-09-04T06:39:31.671Z,17.60
2022-09-04T06:42:56.128Z,17.72
2022-09-04T06:45:44.210Z,18.01
2022-09-04T06:48:47.024Z,17.80
2022-09-04T06:51:42.791Z,17.87
2022-09-04T06:54:42.898Z,17.67
2022-09-04T06:57:46.858Z,18.13
2022-09-04T07:00:15.335Z,17.78
2022-09-04T07:03:29.846Z,17.68
2022-09-04T07:06:12.995Z,17.82
2022-09-04T07:09:05.112Z,18.05
2022-09-04T07:11:48.205Z,18.32
2022-09-04T07:14:17.210Z,18.34
2022-09-04T07:16:48.778Z,18.28
2022-09-04T07:19:40.139Z,18.77
2022-09-04T07:22:26.726Z,18.32
2022-09-04T07:24:56.932Z,18.66
2022-09-04T07:27:46.602Z,18.37
2022-09-04T07:30:14.884Z,18.41
2022-09-04T07:32:50.949Z,17.95
2022-09-04T07:35:38.275Z,18.59
2022-09-04T07:40:59.215Z,18.68
2022-09-04T07:44:17.890Z,18.69
2022-09-04T07:46:57.544Z,19.01
2022-09-04T07:49:32.103Z,19.13
2022-09-04T07:52:07.715Z,19.16
2022-09-04T07:55:08.932Z,19.21
2022-09-04T07:57:45.605Z,18.96
2022-09-04T08:00:16.676Z,19.38
2022-09-04T08:03:03.982Z,19.34
2022-09-04T08:05:37.020Z,19.47
2022-09-04T08:08:43.299Z,19.58
2022-09-04T08:11:16.203Z,19.52
2022-09-04T08:14:15.456Z,19.81
2022-09-04T08:17:03.621Z,19.53
2022-09-04T08:19:41.718Z,19.46
2022-09-04T08:22:13.355Z,19.43
2022-09-04T08:25:17.082Z,19.62
2022-09-04T08:28:09.143Z,19.79
2022-09-04T08:30:42.364Z,20.06
2022-09-04T08:33:51.155Z,19.84
2022-09-04T08:36:30.296Z,20.03
2022-09-04T08:39:07.683Z,19.94
2022-09-04T08:41:41.911Z,20.16
2022-09-04T08:44:48.554Z,20.13
2022-09-04T08:47:36.882Z,20.10
2022-09-04T08:50:40.687Z,19.76
2022-09-04T08:53:26.042Z,19.82
2022-09-04T08:56:08.542Z,19.89
2022-09-04T08:58:56.759Z,19.86
2022-09-04T09:01:35.836Z,20.44
2022-09-04T09:04:15.490Z,20.30
2022-09-04T09:07:16.348Z,19.72
2022-09-04T09:09:51.309Z,19.93
2022-09-04T09:12:55.138Z,20.17
2022-09-04T09:15:51.355Z,20.32
2022-09-04T09:18:40.670Z,20.48
2022-09-04T09:21:15.206Z,20.59
2022-09-04T09:24:08.497Z,20.83
2022-09-04T09:27:10.209Z,20.50
2022-09-04T09:29:56.835Z,20.56
2022-09-04T09:33:09.763Z,20.50
2022-09-04T09:36:14.759Z,20.81
2022-09-04T09:38:59.217Z,20.99
2022-09-04T09:41:34.880Z,20.86
2022-09-04T09:44:41.609Z,21.01
2022-09-04T09:47:33.131Z,21.07
2022-09-04T09:50:20.570Z,20.66
2022-09-04T09:52:52.707Z,21.30
2022-09-04T09:55:43.899Z,20.79
2022-09-04T09:58:48.007Z,20.74
2022-09-04T10:01:59.214Z,20.98
2022-09-04T10:04:50.762Z,20.81
2022-09-04T10:07:38.362Z,20.76
2022-09-04T10:10:26.109Z,20.90
2022-09-04T10:13:10.685Z,21.30
2022-09-04T10:15:37.626Z,21.51
2022-09-04T10:18:24.254Z,21.37
2022-09-04T10:21:28.492Z,20.99
2022-09-04T10:23:58.732Z,20.82
2022-09-04T10:26:46.635Z,21.40
2022-09-04T10:29:28.680Z,21.44
2022-09-04T10:32:16.960Z,21.38
2022-09-04T10:35:16.151Z,21.48
2022-09-04T10:38:14.568Z,21.69
2022-09-04T10:41:18.850Z,21.73
2022-09-04T10:44:01.076Z,21.44
2022-09-04T10:46:40.547Z,21.62
2022-09-04T10:49:35.031Z,21.73
2022-09-04T10:52:08.858Z,21.92
2022-09-04T10:55:11.602Z,21.73
2022-09-04T10:58:17.042Z,21.63
2022-09-04T11:01:16.083Z,21.45
2022-09-04T11:04:01.007Z,21.86
2022-09-04T11:07:04.701Z,22.33
2022-09-04T11:09:53.960Z,21.80
2022-09-04T11:12:41.867Z,22.33
2022-09-04T11:15:17.428Z,21.97
2022-09-04T11:17:54.508Z,22.32
2022-09-04T11:20:45.012Z,22.12
2022-09-04T11:23:45.190Z,21.65
2022-09-04T11:26:28.883Z,22.08
2022-09-04T11:29:20.173Z,22.66
2022-09-04T11:31:57.521Z,22.63
2022-09-04T11:35:03.871Z,22.23
2022-09-04T11:37:57.783Z,21.97
2022-09-04T11:40:42.787Z,22.25
2022-09-04T11:43:15.329Z,22.23
2022-09-04T11:46:11.485Z,22.19
2022-09-04T11:48:50.109Z,22.27
2022-09-04T11:51:41.892Z,22.17
2022-09-04T11:54:32.137Z,21.77
2022-09-04T11:57:23.331Z,22.05
2022-09-04T12:00:08.092Z,22.22
2022-09-04T12:03:12.256Z,22.61
2022-09-04T12:05:59.764Z,22.70
2022-09-04T12:08:50.796Z,22.55
2022-09-04T12:11:44.063Z,22.58
2022-09-04T12:14:36.299Z,22.37
2022-09-04T12:17:34.458Z,22.70
2022-09-04T12:20:10.131Z,22.55
2022-09-04T12:23:01.527Z,22.58
2022-09-04T12:25:50.074Z,22.75
2022-09-04T12:28:37.832Z,22.85
2022-09-04T12:31:31.600Z,22.81
2022-09-04T12:34:01.589Z,23.19
2022-09-04T12:36:52.050Z,22.92
2022-09-04T12:39:26.392Z,22.47
2022-09-04T12:42:21.494Z,22.45
2022-09-04T12:45:13.800Z,22.30
2022-09-04T12:47:43.150Z,22.81
2022-09-04T12:50:10.206Z,22.47
2022-09-04T12:53:03.041Z,22.34
2022-09-04T12:55:41.638Z,22.40
2022-09-04T12:58:33.758Z,22.13
2022-09-04T13:01:13.851Z,22.39
2022-09-04T13:03:52.613Z,22.42
2022-09-04T13:06:27.967Z,22.91
2022-09-04T13:09:20.599Z,22.86
2022-09-04T13:11:57.390Z,22.80
2022-09-04T13:14:51.810Z,22.94
2022-09-04T13:17:53.743Z,22.59
2022-09-04T13:20:34.972Z,22.35
2022-09-04T13:23:19.485Z,23.08
2022-09-04T13:26:02.073Z,23.38
2022-09-04T13:28:47.855Z,23.29
2022-09-04T13:31:15.130Z,23.19
2022-09-04T13:33:51.301Z,23.05
2022-09-04T13:36:37.373Z,22.23
2022-09-04T13:39:15.887Z,22.45
2022-09-04T13:42:01.056Z,22.46
2022-09-04T13:44:34.189Z,22.81
2022-09-04T13:47:08.963Z,22.93
2022-09-04T13:49:40.456Z,22.92
2022-09-04T13:52:27.786Z,22.90
2022-09-04T13:55:08.120Z,22.35
2022-09-04T13:57:57.504Z,22.93
2022-09-04T14:00:26.504Z,22.49
2022-09-04T14:03:00.478Z,22.50
2022-09-04T14:05:28.866Z,22.35
2022-09-04T14:08:02.801Z,22.25
2022-09-04T14:11:02.021Z,22.27
2022-09-04T14:13:44.895Z,22.55
2022-09-04T14:16:13.899Z,22.48
2022-09-04T14:19:08.831Z,22.85
2022-09-04T14:22:10.615Z,22.11
2022-09-04T14:24:56.341Z,22.37
2022-09-04T14:27:22.743Z,21.90
2022-09-04T14:30:01.036Z,22.07
2022-09-04T14:33:07.413Z,22.01
2022-09-04T14:35:36.783Z,21.85
2022-09-04T14:38:26.367Z,21.52
2022-09-04T14:41:08.459Z,21.48
2022-09-04T14:43:59.328Z,21.42
2022-09-04T14:46:31.969Z,21.91
2022-09-04T14:49:02.152Z,21.76
2022-09-04T14:51:28.883Z,21.81
2022-09-04T14:53:55.972Z,21.57
2022-09-04T14:56:28.747Z,21.48
2022-09-04T14:59:07.088Z,21.69
2022-09-04T15:01:35.836Z,21.48
2022-09-04T15:04:14.755Z,21.38
2022-09-04T15:07:09.822Z,21.37
2022-09-04T15:09:38.350Z,21.22
2022-09-04T15:12:25.697Z,21.09
2022-09-04T15:15:10.137Z,21.10
2022-09-04T15:17:39.183Z,20.91
2022-09-04T15:20:28.457Z,20.96
2022-09-04T15:23:17.576Z,21.03
2022-09-04T15:25:59.120Z,20.94
2022-09-04T15:28:38.282Z,21.01
2022-09-04T15:31:17.234Z,20.70
2022-09-04T15:33:46.235Z,20.57
2022-09-04T15:36:20.063Z,20.66
2022-09-04T15:39:00.400Z,20.76
2022-09-04T15:41:37.738Z,20.62
2022-09-04T15:44:20.928Z,20.39
2022-09-04T15:49:44.577Z,20.29
2022-09-04T15:52:31.403Z,20.45
2022-09-04T15:55:08.359Z,20.56
2022-09-04T15:57:47.263Z,20.49
2022-09-04T16:00:16.084Z,20.54
2022-09-04T16:03:08.935Z,20.57
2022-09-04T16:05:44.995Z,20.53
2022-09-04T16:08:25.725Z,20.49
2022-09-04T16:11:12.093Z,20.55
2022-09-04T16:13:50.991Z,20.74
2022-09-04T16:16:24.970Z,20.76
2022-09-04T16:19:07.315Z,20.72
2022-09-04T16:22:03.174Z,20.65
2022-09-04T16:24:44.280Z,20.52
2022-09-04T16:27:17.479Z,20.45
2022-09-04T16:29:51.149Z,20.49
2022-09-04T16:32:22.864Z,20.17
2022-09-04T16:35:19.010Z,20.12
2022-09-04T16:37:52.848Z,19.96
2022-09-04T16:40:48.791Z,20.04
2022-09-04T16:43:34.142Z,19.94
2022-09-04T16:46:25.275Z,19.95
2022-09-04T16:48:52.884Z,19.75
2022-09-04T16:51:58.778Z,19.75
2022-09-04T16:54:31.039Z,19.64
2022-09-04T16:57:13.611Z,19.50
2022-09-04T16:59:46.131Z,19.37
2022-09-04T17:02:41.772Z,19.32
2022-09-04T17:05:17.623Z,19.28
2022-09-04T17:07:50.807Z,19.28
2022-09-04T17:10:41.397Z,19.17
2022-09-04T17:13:21.981Z,19.04
2022-09-04T17:16:02.764Z,18.98
2022-09-04T17:18:30.443Z,19.00
2022-09-04T17:24:01.289Z,18.90
2022-09-04T17:28:55.487Z,18.80
2022-09-04T17:29:12.650Z,18.77
2022-09-04T17:29:47.765Z,18.71
2022-09-04T17:34:07.057Z,18.60
2022-09-04T17:40:36.393Z,18.61
2022-09-04T17:40:48.982Z,18.63
2022-09-04T17:41:48.586Z,18.49
2022-09-04T17:44:33.910Z,18.42
2022-09-04T17:47:06.938Z,18.34
2022-09-04T17:49:34.725Z,18.28
2022-09-04T17:52:07.088Z,18.25
2022-09-04T17:54:39.145Z,18.18
2022-09-04T17:57:42.585Z,17.99
2022-09-04T18:00:20.225Z,17.90
2022-09-04T18:02:54.000Z,17.97
2022-09-04T18:05:25.665Z,17.92
2022-09-04T18:08:11.705Z,17.79
2022-09-04T18:10:57.963Z,17.82
2022-09-04T18:13:37.157Z,17.85
2022-09-04T18:16:20.073Z,17.74
2022-09-04T18:18:53.009Z,17.68
2022-09-04T18:21:31.185Z,17.66
2022-09-04T18:24:03.506Z,17.69
2022-09-04T18:26:45.601Z,17.66
2022-09-04T18:32:57.627Z,17.70
2022-09-04T18:37:09.373Z,17.58
2022-09-04T18:37:15.727Z,17.68
2022-09-04T18:38:15.917Z,17.65
2022-09-04T18:44:31.896Z,17.53
2022-09-04T18:50:31.292Z,17.44
2022-09-04T18:50:38.073Z,17.32
2022-09-04T18:50:51.556Z,17.41
2022-09-04T18:52:15.862Z,17.37
2022-09-04T18:54:47.809Z,17.34
2022-09-04T18:57:33.531Z,17.36
2022-09-04T19:00:09.955Z,17.26
2022-09-04T19:03:13.458Z,17.28
2022-09-04T19:05:45.102Z,17.26
2022-09-04T19:08:22.035Z,17.31
2022-09-04T19:10:53.519Z,17.14
2022-09-04T19:13:53.529Z,17.15
2022-09-04T19:16:36.421Z,17.10
2022-09-04T19:19:17.451Z,17.12
2022-09-04T19:21:57.766Z,17.10
2022-09-04T19:24:39.106Z,17.27
2022-09-04T19:27:25.072Z,17.11
2022-09-04T19:30:03.576Z,17.21
2022-09-04T19:33:11.647Z,17.23
2022-09-04T19:35:41.082Z,17.11
2022-09-04T19:44:05.319Z,17.14
2022-09-04T19:46:00.850Z,17.08
2022-09-04T19:46:12.709Z,17.09
2022-09-04T19:47:27.335Z,17.04
2022-09-04T19:53:03.464Z,17.14
2022-09-04T19:53:31.647Z,17.05
2022-09-04T19:55:49.934Z,17.16
2022-09-04T19:58:51.613Z,17.04
2022-09-04T20:01:24.836Z,16.97
2022-09-04T20:04:01.747Z,16.97
2022-09-04T20:06:50.747Z,16.96
2022-09-04T20:09:33.522Z,16.92
2022-09-04T20:12:10.881Z,16.85
2022-09-04T20:14:46.121Z,16.91
2022-09-04T20:17:31.456Z,16.90
2022-09-04T20:20:01.469Z,16.92
2022-09-04T20:22:37.292Z,16.99
2022-09-04T20:25:24.481Z,17.02
2022-09-04T20:27:55.374Z,16.90
2022-09-04T20:30:24.711Z,16.96
2022-09-04T20:33:06.538Z,16.94
2022-09-04T20:35:42.501Z,16.85
2022-09-04T20:38:23.445Z,16.93
2022-09-04T20:40:55.064Z,16.86
2022-09-04T20:43:31.637Z,16.90
2022-09-04T20:51:06.322Z,16.92
2022-09-04T20:52:57.020Z,16.76
2022-09-04T20:52:59.685Z,16.78
2022-09-04T20:55:01.331Z,16.78
2022-09-04T21:03:12.415Z,16.74
2022-09-04T21:03:17.780Z,16.74
2022-09-04T21:03:44.925Z,16.75
2022-09-04T21:06:32.320Z,16.79
2022-09-04T21:09:30.515Z,16.76
2022-09-04T21:12:29.715Z,16.79
2022-09-04T21:15:04.297Z,16.60
2022-09-04T21:17:59.192Z,16.61
2022-09-04T21:20:29.778Z,16.61
2022-09-04T21:23:35.258Z,16.56
2022-09-04T21:26:27.827Z,16.51
2022-09-04T21:29:17.533Z,16.43
2022-09-04T21:31:55.380Z,16.48
2022-09-04T21:34:47.558Z,16.47
2022-09-04T21:37:39.890Z,16.48
2022-09-04T21:40:49.654Z,16.48
2022-09-04T21:43:24.836Z,16.38
2022-09-04T21:46:43.763Z,16.34
2022-09-04T21:49:41.427Z,16.34
2022-09-04T21:52:56.235Z,16.41
2022-09-04T22:02:07.962Z,16.26
2022-09-04T22:02:36.872Z,16.31
2022-09-04T22:02:38.112Z,16.27
2022-09-04T22:05:22.693Z,16.38
2022-09-04T22:13:29.532Z,16.31
2022-09-04T22:13:43.727Z,16.25
2022-09-04T22:13:50.440Z,16.26
2022-09-04T22:16:42.147Z,16.26
2022-09-04T22:19:36.385Z,16.10
2022-09-04T22:22:24.047Z,16.06
2022-09-04T22:25:30.287Z,16.08
2022-09-04T22:28:15.735Z,16.05
2022-09-04T22:31:24.832Z,16.11
2022-09-04T22:34:18.810Z,15.99
2022-09-04T22:37:30.443Z,15.92
2022-09-04T22:40:06.068Z,15.95
2022-09-04T22:42:51.661Z,15.87
2022-09-04T22:45:25.590Z,15.85
2022-09-04T22:48:25.121Z,15.81
2022-09-04T22:51:16.437Z,15.74
2022-09-04T22:53:58.018Z,15.71
2022-09-04T22:56:43.463Z,15.69
2022-09-04T22:59:38.987Z,15.57
2022-09-04T23:02:54.094Z,15.65
2022-09-04T23:05:41.606Z,15.77
2022-09-04T23:13:36.047Z,15.78
2022-09-04T23:13:46.232Z,15.73
2022-09-04T23:14:44.523Z,15.66
2022-09-04T23:17:18.861Z,15.70
2022-09-04T23:25:59.883Z,15.75
2022-09-04T23:26:43.219Z,15.78
2022-09-04T23:26:43.939Z,15.63
2022-09-04T23:29:41.128Z,15.71
2022-09-04T23:32:24.947Z,15.74
2022-09-04T23:35:16.161Z,15.65
2022-09-04T23:38:07.111Z,15.72
2022-09-04T23:40:44.203Z,15.63
2022-09-04T23:43:19.375Z,15.63
2022-09-04T23:46:00.876Z,15.67
2022-09-04T23:48:40.705Z,15.68
2022-09-04T23:51:45.930Z,15.62
2022-09-04T23:54:49.926Z,15.66
2022-09-04T23:57:26.888Z,15.56
